Marten Promes

Olheiro - Groningen
22 Fev 2028
Terça-feira
Processo

Personalidade

Adaptabilidade (6) Ambição (18) Controvérsia (14) Lealdade (19) Pressão (19) Profissionalismo (6) Espírito Esportivo (4) Temperamento (1)

Perfil

Estilo de Treinamento Democrático
Licença Nacional B
Determinação 8
Gestão de Pessoas 6
Motivação 10
Disciplina 5
Satisfação no Trabalho
100%
Fadiga
0%
Função Olheiro
Salário 49.0K p/s
Contrato 14.03.2029

Desempenho

Comportamento Bom
Eficácia do Treinamento
52%
Desenvolvimento do Jogador
45%
Prevenção de Lesões
30%
Implementação Tática
60%

Eventos Recentes

Participou de uma reunião de recrutamento agora
Recomendou um alvo de transferência agora
Participou de uma reunião de recrutamento agora
Participou de uma reunião de recrutamento 7d atrás
Recomendou um alvo de transferência 7d atrás
Participou de uma reunião de recrutamento 7d atrás
Recomendou um alvo de transferência 7d atrás
Recomendou um alvo de transferência 7d atrás

Monitorando agora

101
Jogador Clube Status Habilidade Confiança Observado Última observação Último voto
Toni Fruk Udinese Ativo 132 / 133 89% 1 31.01.2028 Aprovar
Mao Hosoya Everton Negociando 134 / 135 90% 1 01.01.2028 Aprovar
Hervin Goyes Deportivo Pasto Ativo 109 / 115 40% 1 03.11.2027 -
Kauã Moraes Cruzeiro Ativo 123 / 130 40% 1 03.11.2027 -
Ricky Atletico Venezuela Ativo 92 / 103 40% 1 02.11.2027 -
Dominik Chong Qui Atlanta United FC Ativo 73 / 104 40% 1 02.11.2027 -
Tyson Pearce St. Louis CITY SC Ativo 108 / 97 40% 1 01.11.2027 -
Bahia Criciuma Ativo 124 / 119 40% 1 01.11.2027 -
Oscar Schwartau Norwich City Ativo 119 / 130 40% 2 19.07.2027 -
Jayden Addai Como Ativo 133 / 143 40% 1 19.07.2027 -
Jofre Torrents Ajax Ativo 130 / 137 40% 1 12.07.2027 Mais informações
Tibe De Vlieger KAA Gent Ativo 109 / 118 40% 1 12.07.2027 -
Jesús Rodríguez Como Ativo 137 / 145 40% 2 30.06.2027 -
Mfundo Vilakazi Kaizer Chiefs Ativo 131 / 120 40% 1 30.06.2027 -
Yusi Alavés Ativo 134 / 140 40% 2 21.06.2027 -
Mamadou Diakhon Club Brugge Ativo 132 / 128 40% 2 21.06.2027 -
Pedro de la Vega FC Dallas Ativo 133 / 134 66% 1 01.06.2027 Aprovar
Leo Castledine Middlesbrough Ativo 124 / 132 40% 2 31.05.2027 -
Ethan Williams Peterborough United Ativo 116 / 118 40% 1 30.05.2027 -
Jesús Vázquez Valencia Ativo 132 / 140 40% 2 29.05.2027 -
Derry Murkin Derby County Ativo 127 / 122 40% 3 27.05.2027 -
Florentino Luís Ipswich Town Ativo 141 / 141 40% 2 27.05.2027 -
Ilay Camara Anderlecht Ativo 128 / 127 40% 2 26.05.2027 -
Jacob Greaves Ipswich Town Ativo 137 / 140 40% 2 26.05.2027 -
Jacques Ekomié Wrexham Ativo 133 / 133 40% 2 25.05.2027 -
Lorenzo Amatucci Deportivo La Coruña Ativo 135 / 134 40% 1 25.05.2027 -
Juan Gutiérrez Córdoba Ativo 132 / 126 40% 1 24.05.2027 -
Aaron Hickey Brentford Ativo 152 / 148 40% 3 23.05.2027 -
Kevin Amaro Racing Genk Ativo 132 / 131 40% 3 21.05.2027 -
Josh Edwards Charlton Athletic Ativo 129 / 120 40% 1 21.05.2027 -
Toby Collyer West Bromwich Albion Ativo 139 / 134 40% 1 20.05.2027 -
Adam Wharton Crystal Palace Ativo 143 / 150 40% 2 19.05.2027 -
Moussa Diakité Cádiz Ativo 122 / 131 40% 1 19.05.2027 -
Adrià Altimira Deportivo La Coruña Ativo 130 / 131 40% 1 18.05.2027 -
Milan van Ewijk Mansfield Town Ativo 139 / 127 40% 1 18.05.2027 -
Nathan Collins Brentford Ativo 150 / 147 40% 2 17.05.2027 -
Di'Shon Bernard Sheffield Wednesday Ativo 128 / 121 40% 1 17.05.2027 -
Jack Currie Oxford United Ativo 126 / 124 40% 3 14.05.2027 -
Flavien-Enzo Boyomo Osasuna Ativo 156 / 152 40% 1 14.05.2027 -
Álex Lizancos Burgos Ativo 138 / 128 40% 1 12.05.2027 -
Luke McNally Bristol City Ativo 128 / 133 40% 1 12.05.2027 -
Bart van Rooij Twente Ativo 130 / 137 40% 3 08.05.2027 -
Mike Eerdhuijzen KV Mechelen Ativo 121 / 127 40% 3 07.05.2027 -
Pablo Ramón Racing Santander Ativo 130 / 132 40% 2 07.05.2027 -
Adrien Truffert Bournemouth Ativo 149 / 152 40% 2 06.05.2027 -
Bosun Lawal Stoke City Ativo 117 / 124 40% 2 05.05.2027 -
Ryan Sessegnon Fulham Ativo 148 / 143 40% 6 04.05.2027 -
Hugo Guillamón Gijón Ativo 135 / 130 40% 1 01.05.2027 -
Oliver Skipp Leicester City Ativo 125 / 133 40% 1 01.05.2027 -
Mandla Erasmus SuperSport United Ativo 111 / 116 40% 1 30.04.2027 -
Tariq Lamptey Queens Park Rangers Ativo 127 / 134 40% 1 30.04.2027 -
Kevin Vazquez Cruz Azul Ativo 145 / 145 40% 1 30.04.2027 -
David Mella Deportivo La Coruña Ativo 137 / 129 40% 1 30.04.2027 -
Shea Charles Southampton Ativo 125 / 139 40% 3 28.04.2027 -
Edoardo Bove Watford Ativo 140 / 127 40% 1 26.04.2027 -
Omar El Hilali Espanyol Ativo 157 / 150 40% 1 25.04.2027 -
Marvin Park Las Palmas Ativo 138 / 128 40% 1 25.04.2027 -
Lewis Ferguson Bologna Ativo 135 / 145 40% 1 24.04.2027 -
Pol Lozano Espanyol Ativo 147 / 139 40% 1 23.04.2027 -
Callum Doyle Wrexham Ativo 136 / 132 40% 2 22.04.2027 -
Kees Smit AZ Ativo 129 / 150 40% 1 22.04.2027 -
Jan Bürger Gillingham Ativo 108 / 117 40% 1 22.04.2027 -
Daijiro Chirino Almería Ativo 132 / 135 40% 1 21.04.2027 -
Ethan Galbraith Swansea City Ativo 139 / 135 40% 1 21.04.2027 -
Othmane Maamma Watford Ativo 117 / 129 40% 1 19.04.2027 -
Izan Merino Málaga Ativo 122 / 124 40% 1 18.04.2027 -
Peer Koopmeiners AZ Ativo 132 / 142 40% 1 13.04.2027 -
Zinho Vanaken KV Oostende Ativo 120 / 130 40% 3 12.04.2027 -
Matisse Samoise KAA Gent Ativo 135 / 126 40% 2 08.04.2027 -
Taiga Hata Sint-Truiden Ativo 124 / 119 40% 1 08.04.2027 -
Víctor Gómez Braga Ativo 135 / 142 40% 1 07.04.2027 -
Michael Kayode Brentford Ativo 137 / 149 40% 1 05.04.2027 -
Christian Krasnodar Ativo 147 / 130 40% 3 04.04.2027 -
Alessandro Buongiorno Sassuolo Ativo 146 / 151 40% 1 03.04.2027 -
Aiham Ousou Charleroi Ativo 139 / 131 40% 1 30.03.2027 -
Juanlu Bournemouth Ativo 137 / 152 40% 2 23.03.2027 -
Fidel Ambríz Monterrey Ativo 120 / 130 40% 1 23.03.2027 -
Welington Southampton Ativo 143 / 131 40% 1 22.03.2027 -
Alejandro Francés Girona Ativo 133 / 137 40% 1 22.03.2027 -
Ilaix Moriba Celta Ativo 145 / 149 40% 1 21.03.2027 -
Max Bird Birmingham Ativo 139 / 129 40% 1 20.03.2027 -
Yaimar Medina Racing Genk Ativo 122 / 127 40% 2 17.03.2027 -
Tristan Degreef Anderlecht Ativo 124 / 127 40% 1 31.12.2026 -
Jack Rudoni Coventry City Ativo 137 / 129 40% 1 31.12.2026 -
Matte Smets Racing Genk Ativo 134 / 129 40% 1 15.12.2026 -
Christian Tielemans KV Oostende Ativo 146 / 139 40% 1 15.12.2026 -
Mathias Delorge KAA Gent Ativo 129 / 126 40% 1 14.12.2026 -
José Marsà KV Mechelen Ativo 133 / 126 40% 1 09.12.2026 -
José Hurtado Bragantino Ativo 135 / 127 40% 1 08.12.2026 -
Marco Kana Anderlecht Ativo 125 / 127 40% 2 07.12.2026 -
Mateo Chávez AZ Ativo 125 / 130 40% 1 19.11.2026 -
Omar Campos Cruz Azul Ativo 120 / 119 40% 1 13.11.2026 -
Lukáš Červ Viktoria Plzen Ativo 134 / 132 40% 1 13.11.2026 -
Joel Ordóñez Club Brugge Ativo 122 / 128 40% 1 12.11.2026 -
Anel Ahmedhodžić Burnley Ativo 132 / 132 40% 1 09.11.2026 -
Botond Balogh Westerlo Ativo 127 / 124 40% 1 07.10.2026 -
Joaquin Seys Club Brugge Ativo 135 / 130 40% 1 05.10.2026 -
Ringo Meerveld Heerenveen Ativo 123 / 133 40% 1 12.09.2026 -
Łukasz Łakomy OH Leuven Ativo 118 / 123 40% 1 11.09.2026 -
Xavi Simons Tottenham Ativo 156 / 151 40% 1 07.09.2026 -
Yvandro Borges Sanches Heracles Ativo 115 / 108 55% 1 03.08.2026 -